createdAt,value
2023-03-29T00:00:15.892Z,3.90
2023-03-29T00:03:04.419Z,4.30
2023-03-29T00:05:35.324Z,3.80
2023-03-29T00:08:04.388Z,4.60
2023-03-29T00:10:34.011Z,3.90
2023-03-29T00:13:02.873Z,3.00
2023-03-29T00:15:31.381Z,5.00
2023-03-29T00:17:59.317Z,3.60
2023-03-29T00:20:28.910Z,4.30
2023-03-29T00:22:56.865Z,4.00
2023-03-29T00:25:24.771Z,3.60
2023-03-29T00:27:52.502Z,3.00
2023-03-29T00:30:20.453Z,3.80
2023-03-29T00:32:48.314Z,4.00
2023-03-29T00:35:16.685Z,3.70
2023-03-29T00:37:47.295Z,3.20
2023-03-29T00:40:15.704Z,3.30
2023-03-29T00:42:46.876Z,3.10
2023-03-29T00:45:25.398Z,2.80
2023-03-29T00:47:57.509Z,3.20
2023-03-29T00:50:53.650Z,2.60
2023-03-29T00:53:36.556Z,3.30
2023-03-29T00:56:24.193Z,3.10
2023-03-29T00:59:13.574Z,2.40
2023-03-29T01:01:54.374Z,3.80
2023-03-29T01:04:29.650Z,3.80
2023-03-29T01:07:03.275Z,3.30
2023-03-29T01:09:35.149Z,2.90
2023-03-29T01:14:46.015Z,3.60
2023-03-29T01:17:13.906Z,3.10
2023-03-29T01:19:53.983Z,2.70
2023-03-29T01:22:22.641Z,3.20
2023-03-29T01:25:03.422Z,3.20
2023-03-29T01:27:42.900Z,3.40
2023-03-29T01:30:19.650Z,2.10
2023-03-29T01:33:23.520Z,3.40
2023-03-29T01:36:08.263Z,2.80
2023-03-29T01:38:56.883Z,3.80
2023-03-29T01:41:50.173Z,2.40
2023-03-29T01:44:25.705Z,3.10
2023-03-29T01:47:02.818Z,3.70
2023-03-29T01:50:08.365Z,3.10
2023-03-29T01:52:43.047Z,3.00
2023-03-29T01:55:15.169Z,3.70
2023-03-29T01:57:45.589Z,4.30
2023-03-29T02:00:21.350Z,4.30
2023-03-29T02:02:52.303Z,4.40
2023-03-29T02:05:23.281Z,5.50
2023-03-29T02:07:53.323Z,5.90
2023-03-29T02:10:23.531Z,4.50
2023-03-29T02:12:51.447Z,4.80
2023-03-29T02:15:21.088Z,4.60
2023-03-29T02:17:49.644Z,4.30
2023-03-29T02:20:25.502Z,4.00
2023-03-29T02:23:09.033Z,3.90
2023-03-29T02:25:38.016Z,4.10
2023-03-29T02:28:06.958Z,3.40
2023-03-29T02:30:44.656Z,4.20
2023-03-29T02:33:18.348Z,4.10
2023-03-29T02:35:59.227Z,4.10
2023-03-29T02:38:28.196Z,3.90
2023-03-29T02:40:58.979Z,3.50
2023-03-29T02:43:29.056Z,4.40
2023-03-29T02:45:57.175Z,2.70
2023-03-29T02:48:28.476Z,3.50
2023-03-29T02:51:01.289Z,3.60
2023-03-29T02:53:38.262Z,3.70
2023-03-29T02:56:06.949Z,3.50
2023-03-29T02:58:36.855Z,3.80
2023-03-29T03:01:07.044Z,3.10
2023-03-29T03:03:35.964Z,3.00
2023-03-29T03:06:04.423Z,2.80
2023-03-29T03:08:32.405Z,3.60
2023-03-29T03:11:00.461Z,3.30
2023-03-29T03:13:28.428Z,3.20
2023-03-29T03:15:56.324Z,2.50
2023-03-29T03:18:24.382Z,2.30
2023-03-29T03:20:57.451Z,3.10
2023-03-29T03:23:25.524Z,3.70
2023-03-29T03:25:53.590Z,3.50
2023-03-29T03:28:22.274Z,3.60
2023-03-29T03:30:50.560Z,4.20
2023-03-29T03:33:19.950Z,2.90
2023-03-29T03:35:48.191Z,3.50
2023-03-29T03:38:16.811Z,3.30
2023-03-29T03:40:44.672Z,3.30
2023-03-29T03:43:12.750Z,2.30
2023-03-29T03:45:43.055Z,2.60
2023-03-29T03:48:10.927Z,3.10
2023-03-29T03:50:39.249Z,2.80
2023-03-29T03:53:07.612Z,2.40
2023-03-29T03:55:35.371Z,3.20
2023-03-29T03:58:03.158Z,3.20
2023-03-29T04:00:31.149Z,3.80
2023-03-29T04:02:59.055Z,3.00
2023-03-29T04:05:27.171Z,3.80
2023-03-29T04:07:56.176Z,2.30
2023-03-29T04:10:24.099Z,3.10
2023-03-29T04:12:51.921Z,3.20
2023-03-29T04:15:20.405Z,2.90
2023-03-29T04:17:48.229Z,4.40
2023-03-29T04:20:16.810Z,3.20
2023-03-29T04:22:44.578Z,4.30
2023-03-29T04:25:12.406Z,4.70
2023-03-29T04:27:40.587Z,3.30
2023-03-29T04:30:09.710Z,3.30
2023-03-29T04:32:37.762Z,3.30
2023-03-29T04:35:06.086Z,3.40
2023-03-29T04:37:34.387Z,3.50
2023-03-29T04:40:04.728Z,4.00
2023-03-29T04:42:32.683Z,3.50
2023-03-29T04:45:01.245Z,3.60
2023-03-29T04:47:30.093Z,3.70
2023-03-29T04:49:58.230Z,3.90
2023-03-29T04:52:26.710Z,3.80
2023-03-29T04:54:54.576Z,4.40
2023-03-29T04:57:22.407Z,5.60
2023-03-29T04:59:50.314Z,9.90
2023-03-29T05:02:18.274Z,11.10
2023-03-29T05:04:46.382Z,7.50
2023-03-29T05:07:15.747Z,6.90
2023-03-29T05:09:43.850Z,5.10
2023-03-29T05:12:12.006Z,5.80
2023-03-29T05:14:39.853Z,6.50
2023-03-29T05:17:08.346Z,4.90
2023-03-29T05:19:36.931Z,4.70
2023-03-29T05:22:04.775Z,4.00
2023-03-29T05:24:32.549Z,3.50
2023-03-29T05:27:00.371Z,4.90
2023-03-29T05:29:28.272Z,4.20
2023-03-29T05:31:56.072Z,4.40
2023-03-29T05:34:24.019Z,3.40
2023-03-29T05:36:52.078Z,4.50
2023-03-29T05:39:19.853Z,4.40
2023-03-29T05:41:47.733Z,3.20
2023-03-29T05:44:15.672Z,3.90
2023-03-29T05:46:43.433Z,3.80
2023-03-29T05:49:12.480Z,3.70
2023-03-29T05:51:42.178Z,4.90
2023-03-29T05:54:10.032Z,4.90
2023-03-29T05:56:38.277Z,3.90
2023-03-29T05:59:06.107Z,4.20
2023-03-29T06:01:34.624Z,4.50
2023-03-29T06:04:03.915Z,4.20
2023-03-29T06:06:32.184Z,5.00
2023-03-29T06:09:01.449Z,4.60
2023-03-29T06:11:29.472Z,4.80
2023-03-29T06:13:57.818Z,3.90
2023-03-29T06:16:26.309Z,4.00
2023-03-29T06:18:54.394Z,4.70
2023-03-29T06:21:23.079Z,4.70
2023-03-29T06:23:51.257Z,4.30
2023-03-29T06:26:20.245Z,3.70
2023-03-29T06:28:51.350Z,4.20
2023-03-29T06:31:21.171Z,5.10
2023-03-29T06:33:49.679Z,4.20
2023-03-29T06:36:17.575Z,3.20
2023-03-29T06:38:46.053Z,3.60
2023-03-29T06:41:14.931Z,3.50
2023-03-29T06:43:43.231Z,4.20
2023-03-29T06:46:12.380Z,3.60
2023-03-29T06:48:41.256Z,3.10
2023-03-29T06:51:09.164Z,4.00
2023-03-29T06:53:36.966Z,3.90
2023-03-29T06:56:09.302Z,4.30
2023-03-29T06:58:37.664Z,2.90
2023-03-29T07:01:07.200Z,4.00
2023-03-29T07:03:36.218Z,2.90
2023-03-29T07:06:09.897Z,4.30
2023-03-29T07:08:45.092Z,4.40
2023-03-29T07:11:15.097Z,4.80
2023-03-29T07:13:43.994Z,3.70
2023-03-29T07:16:13.938Z,3.00
2023-03-29T07:18:44.098Z,3.50
2023-03-29T07:21:13.445Z,4.10
2023-03-29T07:23:41.503Z,4.20
2023-03-29T07:26:10.553Z,3.80
2023-03-29T07:28:39.566Z,4.40
2023-03-29T07:31:12.077Z,4.20
2023-03-29T07:33:40.073Z,3.70
2023-03-29T07:36:09.322Z,3.70
2023-03-29T07:38:38.040Z,4.50
2023-03-29T07:41:06.985Z,3.60
2023-03-29T07:43:35.082Z,4.00
2023-03-29T07:46:04.997Z,3.80
2023-03-29T07:48:33.904Z,3.30
2023-03-29T07:51:02.226Z,2.70
2023-03-29T07:53:30.325Z,3.10
2023-03-29T07:55:58.191Z,3.20
2023-03-29T07:58:25.955Z,2.40
2023-03-29T08:00:53.814Z,2.10
2023-03-29T08:03:23.034Z,3.10
2023-03-29T08:05:51.698Z,2.90
2023-03-29T08:08:19.467Z,2.30
2023-03-29T08:10:47.287Z,2.90
2023-03-29T08:13:15.463Z,2.80
2023-03-29T08:15:46.382Z,2.80
2023-03-29T08:18:14.726Z,1.90
2023-03-29T08:20:42.838Z,2.60
2023-03-29T08:23:10.896Z,2.50
2023-03-29T08:25:38.773Z,2.60
2023-03-29T08:28:06.633Z,2.60
2023-03-29T08:30:34.616Z,1.80
2023-03-29T08:33:02.391Z,2.80
2023-03-29T08:35:30.134Z,2.10
2023-03-29T08:37:57.873Z,2.20
2023-03-29T08:40:30.156Z,2.60
2023-03-29T08:43:14.716Z,2.60
2023-03-29T08:45:55.180Z,2.10
2023-03-29T08:48:32.027Z,2.20
2023-03-29T08:51:08.648Z,1.60
2023-03-29T08:53:49.802Z,2.20
2023-03-29T08:56:26.555Z,2.20
2023-03-29T08:58:56.422Z,1.90
2023-03-29T09:01:28.058Z,2.40
2023-03-29T09:04:20.332Z,2.60
2023-03-29T09:06:48.942Z,1.70
2023-03-29T09:09:20.970Z,1.80
2023-03-29T09:12:07.458Z,1.90
2023-03-29T09:15:11.288Z,2.20
2023-03-29T09:18:03.269Z,2.20
2023-03-29T09:20:50.150Z,1.00
2023-03-29T09:26:08.488Z,1.90
2023-03-29T09:28:40.370Z,1.30
2023-03-29T09:31:21.712Z,1.70
2023-03-29T09:33:57.694Z,1.80
2023-03-29T09:36:31.809Z,1.50
2023-03-29T09:39:00.392Z,1.90
2023-03-29T09:41:34.984Z,1.80
2023-03-29T09:44:12.731Z,1.90
2023-03-29T09:46:56.109Z,1.90
2023-03-29T09:49:30.074Z,1.00
2023-03-29T09:52:05.074Z,1.50
2023-03-29T09:54:33.151Z,1.80
2023-03-29T09:57:01.245Z,1.60
2023-03-29T09:59:29.347Z,1.10
2023-03-29T10:02:34.714Z,1.70
2023-03-29T10:05:09.937Z,1.80
2023-03-29T10:07:48.500Z,1.50
2023-03-29T10:10:29.448Z,1.50
2023-03-29T10:13:01.842Z,1.90
2023-03-29T10:15:30.996Z,1.30
2023-03-29T10:18:03.216Z,1.90
2023-03-29T10:20:36.261Z,1.80
2023-03-29T10:23:08.345Z,1.40
2023-03-29T10:25:42.969Z,2.70
2023-03-29T10:28:17.899Z,1.90
2023-03-29T10:30:52.837Z,2.20
2023-03-29T10:33:27.053Z,2.10
2023-03-29T10:35:57.770Z,2.30
2023-03-29T10:38:29.442Z,1.70
2023-03-29T10:41:16.111Z,2.20
2023-03-29T10:43:49.676Z,1.90
2023-03-29T10:46:22.485Z,2.30
2023-03-29T10:48:55.408Z,2.00
2023-03-29T10:51:25.369Z,1.50
2023-03-29T10:53:53.597Z,1.70
2023-03-29T10:56:41.546Z,1.90
2023-03-29T10:59:24.443Z,1.90
2023-03-29T11:01:54.981Z,1.70
2023-03-29T11:04:28.751Z,2.20
2023-03-29T11:07:22.830Z,2.20
2023-03-29T11:10:01.613Z,2.40
2023-03-29T11:12:51.055Z,1.60
2023-03-29T11:15:45.461Z,1.80
2023-03-29T11:18:28.514Z,2.40
2023-03-29T11:21:18.848Z,2.30
2023-03-29T11:23:49.272Z,2.00
2023-03-29T11:26:24.921Z,2.30
2023-03-29T11:29:21.732Z,3.00
2023-03-29T11:32:11.970Z,2.60
2023-03-29T11:40:17.932Z,2.10
2023-03-29T11:42:49.445Z,2.00
2023-03-29T11:45:27.378Z,2.00
2023-03-29T11:47:57.572Z,1.80
2023-03-29T11:50:30.940Z,1.60
2023-03-29T11:53:16.251Z,1.60
2023-03-29T11:55:46.046Z,2.20
2023-03-29T11:58:38.789Z,2.00
2023-03-29T12:01:17.975Z,1.80
2023-03-29T12:03:56.036Z,2.40
2023-03-29T12:06:30.398Z,1.70
2023-03-29T12:09:37.793Z,1.80
2023-03-29T12:12:21.837Z,1.80
2023-03-29T12:15:31.975Z,1.60
2023-03-29T12:18:38.330Z,1.70
2023-03-29T12:21:13.364Z,1.70
2023-03-29T12:23:43.468Z,1.50
2023-03-29T12:26:29.667Z,1.50
2023-03-29T12:29:19.005Z,1.30
2023-03-29T12:31:58.685Z,1.80
2023-03-29T12:34:35.501Z,1.70
2023-03-29T12:37:18.519Z,1.70
2023-03-29T12:39:47.110Z,1.80
2023-03-29T12:42:21.116Z,1.70
2023-03-29T12:44:58.815Z,1.50
2023-03-29T12:47:32.994Z,1.40
2023-03-29T12:50:01.852Z,1.40
2023-03-29T12:52:36.434Z,1.50
2023-03-29T12:55:21.352Z,1.70
2023-03-29T12:58:08.444Z,1.40
2023-03-29T13:00:36.383Z,1.40
2023-03-29T13:03:20.907Z,1.20
2023-03-29T13:06:00.796Z,1.60
2023-03-29T13:08:42.472Z,1.80
2023-03-29T13:11:35.861Z,1.30
2023-03-29T13:14:14.859Z,1.70
2023-03-29T13:16:43.338Z,1.50
2023-03-29T13:19:20.219Z,1.20
2023-03-29T13:21:57.194Z,1.40
2023-03-29T13:24:44.005Z,1.30
2023-03-29T13:27:18.422Z,1.70
2023-03-29T13:30:24.103Z,1.40
2023-03-29T13:33:27.280Z,1.50
2023-03-29T13:36:07.373Z,1.50
2023-03-29T13:38:54.260Z,1.50
2023-03-29T13:41:40.361Z,1.50
2023-03-29T13:44:44.545Z,1.80
2023-03-29T13:47:35.738Z,1.90
2023-03-29T13:50:12.695Z,1.80
2023-03-29T13:53:06.162Z,1.80
2023-03-29T13:55:43.182Z,2.30
2023-03-29T13:58:19.654Z,2.10
2023-03-29T14:01:01.901Z,2.50
2023-03-29T14:03:38.612Z,2.20
2023-03-29T14:06:07.393Z,2.10
2023-03-29T14:08:41.222Z,2.30
2023-03-29T14:11:23.234Z,2.00
2023-03-29T14:14:00.193Z,2.30
2023-03-29T14:16:36.159Z,3.50
2023-03-29T14:19:40.270Z,3.20
2023-03-29T14:22:13.221Z,2.20
2023-03-29T14:24:50.230Z,2.60
2023-03-29T14:27:19.735Z,2.40
2023-03-29T14:29:49.918Z,2.40
2023-03-29T14:32:28.444Z,3.20
2023-03-29T14:34:57.195Z,3.10
2023-03-29T14:37:29.185Z,2.80
2023-03-29T14:39:59.059Z,2.20
2023-03-29T14:42:29.283Z,3.00
2023-03-29T14:45:02.277Z,2.20
2023-03-29T14:47:33.066Z,2.10
2023-03-29T14:50:01.870Z,2.10
2023-03-29T14:52:31.376Z,2.10
2023-03-29T14:55:02.081Z,1.90
2023-03-29T14:57:36.525Z,2.90
2023-03-29T15:00:27.006Z,2.80
2023-03-29T15:02:58.559Z,2.20
2023-03-29T15:05:39.651Z,2.60
2023-03-29T15:08:13.373Z,2.90
2023-03-29T15:10:44.851Z,3.20
2023-03-29T15:13:19.855Z,3.00
2023-03-29T15:15:52.708Z,2.60
2023-03-29T15:18:27.573Z,3.50
2023-03-29T15:20:55.717Z,3.20
2023-03-29T15:23:25.728Z,3.60
2023-03-29T15:25:59.310Z,3.30
2023-03-29T15:28:31.299Z,3.00
2023-03-29T15:31:10.302Z,2.60
2023-03-29T15:33:40.683Z,2.90
2023-03-29T15:36:11.593Z,3.60
2023-03-29T15:38:44.489Z,3.10
2023-03-29T15:41:14.748Z,4.90
2023-03-29T15:43:43.173Z,3.10
2023-03-29T15:46:14.252Z,2.40
2023-03-29T15:48:43.419Z,3.10
2023-03-29T15:51:12.804Z,4.30
2023-03-29T15:53:44.907Z,5.50
2023-03-29T15:56:20.630Z,3.50
2023-03-29T15:58:49.428Z,3.60
2023-03-29T16:01:34.822Z,3.60
2023-03-29T16:04:06.190Z,4.10
2023-03-29T16:06:34.886Z,3.90
2023-03-29T16:09:04.421Z,4.00
2023-03-29T16:11:33.000Z,3.50
2023-03-29T16:14:01.406Z,2.80
2023-03-29T16:16:29.433Z,2.70
2023-03-29T16:19:00.703Z,3.30
2023-03-29T16:21:29.697Z,4.60
2023-03-29T16:23:58.056Z,3.30
2023-03-29T16:26:26.437Z,3.00
2023-03-29T16:28:55.556Z,2.40
2023-03-29T16:31:26.027Z,2.00
2023-03-29T16:33:54.229Z,2.20
2023-03-29T16:36:22.403Z,1.90
2023-03-29T16:38:50.393Z,2.80
2023-03-29T16:41:18.256Z,2.50
2023-03-29T16:43:46.325Z,2.10
2023-03-29T16:46:14.419Z,2.50
2023-03-29T16:48:42.484Z,2.50
2023-03-29T16:51:10.966Z,2.80
2023-03-29T16:53:38.924Z,1.90
2023-03-29T16:56:07.988Z,2.40
2023-03-29T16:58:35.752Z,2.80
2023-03-29T17:01:12.016Z,2.90
2023-03-29T17:03:41.052Z,2.80
2023-03-29T17:06:11.611Z,2.90
2023-03-29T17:08:39.783Z,2.60
2023-03-29T17:11:07.697Z,3.30
2023-03-29T17:13:35.614Z,3.30
2023-03-29T17:16:04.001Z,5.00
2023-03-29T17:18:32.034Z,5.20
2023-03-29T17:21:00.803Z,8.90
2023-03-29T17:23:29.490Z,10.00
2023-03-29T17:25:57.342Z,12.20
2023-03-29T17:28:25.416Z,12.60
2023-03-29T17:30:53.305Z,13.60
2023-03-29T17:33:22.847Z,13.10
2023-03-29T17:35:52.138Z,14.00
2023-03-29T17:38:20.158Z,12.40
2023-03-29T17:40:58.368Z,10.80
2023-03-29T17:43:26.360Z,10.80
2023-03-29T17:45:54.911Z,11.00
2023-03-29T17:48:23.776Z,11.90
2023-03-29T17:50:52.147Z,13.40
2023-03-29T17:53:20.228Z,12.50
2023-03-29T17:55:48.433Z,12.00
2023-03-29T17:58:16.673Z,10.20
2023-03-29T18:00:44.550Z,10.00
2023-03-29T18:03:12.858Z,10.80
2023-03-29T18:05:40.929Z,10.70
2023-03-29T18:08:08.883Z,11.30
2023-03-29T18:10:37.054Z,9.70
2023-03-29T18:13:04.975Z,9.00
2023-03-29T18:15:32.888Z,9.30
2023-03-29T18:18:00.909Z,9.50
2023-03-29T18:20:29.082Z,10.30
2023-03-29T18:22:57.104Z,10.50
2023-03-29T18:25:25.392Z,10.60
2023-03-29T18:27:53.237Z,10.90
2023-03-29T18:30:21.209Z,10.20
2023-03-29T18:32:49.153Z,10.30
2023-03-29T18:35:17.144Z,11.50
2023-03-29T18:37:44.915Z,11.50
2023-03-29T18:40:13.464Z,11.30
2023-03-29T18:42:41.540Z,11.90
2023-03-29T18:45:10.863Z,12.50
2023-03-29T18:47:38.765Z,11.30
2023-03-29T18:50:07.680Z,13.00
2023-03-29T18:52:36.007Z,14.10
2023-03-29T18:55:05.606Z,13.20
2023-03-29T18:57:33.505Z,13.70
2023-03-29T19:00:01.457Z,14.00
2023-03-29T19:02:29.396Z,12.90
2023-03-29T19:04:57.577Z,13.40
2023-03-29T19:07:25.474Z,11.50
2023-03-29T19:09:53.309Z,11.40
2023-03-29T19:12:21.179Z,10.70
2023-03-29T19:14:49.241Z,10.60
2023-03-29T19:17:17.160Z,10.40
2023-03-29T19:19:45.104Z,10.10
2023-03-29T19:22:13.377Z,8.60
2023-03-29T19:24:41.226Z,9.60
2023-03-29T19:27:12.003Z,8.60
2023-03-29T19:29:41.249Z,11.20
2023-03-29T19:32:09.144Z,13.30
2023-03-29T19:34:37.310Z,15.50
2023-03-29T19:37:05.255Z,17.10
2023-03-29T19:39:33.166Z,16.50
2023-03-29T19:42:01.089Z,14.00
2023-03-29T19:44:28.849Z,12.20
2023-03-29T19:46:56.788Z,10.40
2023-03-29T19:49:24.684Z,9.50
2023-03-29T19:51:55.015Z,10.10
2023-03-29T19:54:23.694Z,9.50
2023-03-29T19:56:52.828Z,11.10
2023-03-29T19:59:20.810Z,9.20
2023-03-29T20:01:51.688Z,7.80
2023-03-29T20:04:22.844Z,9.90
2023-03-29T20:06:52.024Z,9.80
2023-03-29T20:09:20.301Z,9.00
2023-03-29T20:11:48.175Z,8.20
2023-03-29T20:14:16.160Z,8.70
2023-03-29T20:16:44.989Z,8.80
2023-03-29T20:19:14.313Z,8.20
2023-03-29T20:21:42.205Z,8.80
2023-03-29T20:24:11.495Z,9.20
2023-03-29T20:26:39.458Z,9.40
2023-03-29T20:29:07.465Z,9.30
2023-03-29T20:31:35.449Z,9.90
2023-03-29T20:34:03.361Z,8.50
2023-03-29T20:36:32.082Z,9.20
2023-03-29T20:39:00.421Z,8.90
2023-03-29T20:41:28.292Z,8.90
2023-03-29T20:44:00.023Z,8.80
2023-03-29T20:46:35.042Z,8.70
2023-03-29T20:49:05.149Z,8.40
2023-03-29T20:51:33.705Z,7.30
2023-03-29T20:54:04.768Z,7.90
2023-03-29T20:56:38.982Z,8.40
2023-03-29T20:59:10.859Z,8.90
2023-03-29T21:01:42.521Z,11.60
2023-03-29T21:04:11.189Z,15.30
2023-03-29T21:06:41.768Z,15.20
2023-03-29T21:09:09.520Z,12.30
2023-03-29T21:11:37.497Z,10.40
2023-03-29T21:14:05.358Z,7.80
2023-03-29T21:16:33.222Z,7.70
2023-03-29T21:19:01.127Z,7.20
2023-03-29T21:21:29.785Z,7.20
2023-03-29T21:23:57.638Z,7.40
2023-03-29T21:26:26.218Z,7.20
2023-03-29T21:28:54.034Z,7.70
2023-03-29T21:31:21.854Z,7.60
2023-03-29T21:33:49.778Z,6.20
2023-03-29T21:36:17.628Z,7.60
2023-03-29T21:38:46.044Z,6.60
2023-03-29T21:41:14.043Z,7.00
2023-03-29T21:43:42.256Z,6.70
2023-03-29T21:46:10.243Z,7.30
2023-03-29T21:48:38.131Z,7.60
2023-03-29T21:51:07.169Z,7.40
2023-03-29T21:53:35.547Z,7.20
2023-03-29T21:56:03.783Z,8.10
2023-03-29T21:58:31.759Z,8.30
2023-03-29T22:01:02.584Z,7.10
2023-03-29T22:03:30.874Z,7.80
2023-03-29T22:06:01.457Z,7.20
2023-03-29T22:08:30.877Z,7.10
2023-03-29T22:10:58.866Z,26.60
2023-03-29T22:13:28.777Z,14.60
2023-03-29T22:16:03.729Z,11.50
2023-03-29T22:18:46.843Z,7.30
2023-03-29T22:21:24.779Z,6.40
2023-03-29T22:26:25.171Z,6.90
2023-03-29T22:28:54.078Z,5.50
2023-03-29T22:31:23.515Z,5.90
2023-03-29T22:33:51.737Z,5.40
2023-03-29T22:36:28.311Z,5.90
2023-03-29T22:38:56.406Z,5.40
2023-03-29T22:41:26.237Z,5.00
2023-03-29T22:43:56.320Z,5.20
2023-03-29T22:46:24.853Z,6.00
2023-03-29T22:48:53.261Z,5.60
2023-03-29T22:51:21.758Z,5.80
2023-03-29T22:53:49.816Z,5.40
2023-03-29T22:56:17.985Z,5.50
2023-03-29T22:58:46.274Z,4.20
2023-03-29T23:01:14.366Z,4.80
2023-03-29T23:03:42.272Z,5.90
2023-03-29T23:06:10.087Z,5.50
2023-03-29T23:08:37.892Z,5.90
2023-03-29T23:11:05.862Z,6.00
2023-03-29T23:13:35.621Z,5.20
2023-03-29T23:16:03.895Z,6.20
2023-03-29T23:18:35.072Z,6.40
2023-03-29T23:21:06.058Z,5.10
2023-03-29T23:26:02.719Z,4.70
2023-03-29T23:28:31.624Z,5.80
2023-03-29T23:31:03.246Z,6.30
2023-03-29T23:33:35.621Z,5.30
2023-03-29T23:36:06.361Z,6.80
2023-03-29T23:38:37.701Z,6.10
2023-03-29T23:41:08.683Z,5.20
2023-03-29T23:43:40.645Z,5.70
2023-03-29T23:46:11.360Z,5.40
2023-03-29T23:48:39.272Z,6.10
2023-03-29T23:51:08.234Z,6.50
2023-03-29T23:53:36.876Z,6.90
2023-03-29T23:56:06.072Z,5.80
2023-03-29T23:58:37.121Z,5.80
